createdAt,value
2023-01-13T00:01:08.665Z,40.10
2023-01-13T00:03:36.100Z,40.10
2023-01-13T00:06:03.087Z,40.10
2023-01-13T00:08:30.391Z,40.10
2023-01-13T00:10:57.352Z,40.10
2023-01-13T00:13:27.272Z,40.10
2023-01-13T00:15:58.295Z,40.10
2023-01-13T00:18:25.569Z,40.10
2023-01-13T00:21:06.905Z,40.10
2023-01-13T00:23:34.639Z,40.10
2023-01-13T00:26:02.932Z,40.10
2023-01-13T00:28:29.917Z,40.00
2023-01-13T00:30:58.658Z,40.10
2023-01-13T00:33:25.931Z,40.10
2023-01-13T00:35:59.510Z,40.10
2023-01-13T00:38:26.542Z,40.00
2023-01-13T00:41:00.361Z,40.00
2023-01-13T00:43:28.765Z,40.00
2023-01-13T00:45:55.855Z,40.00
2023-01-13T00:48:23.847Z,40.00
2023-01-13T00:51:01.350Z,40.00
2023-01-13T00:53:28.938Z,40.00
2023-01-13T00:56:02.823Z,40.00
2023-01-13T00:58:31.261Z,40.00
2023-01-13T01:01:02.108Z,40.00
2023-01-13T01:03:29.479Z,40.10
2023-01-13T01:05:57.014Z,40.10
2023-01-13T01:08:24.023Z,40.00
2023-01-13T01:10:50.892Z,40.00
2023-01-13T01:13:17.904Z,40.00
2023-01-13T01:15:44.917Z,40.00
2023-01-13T01:18:11.913Z,40.00
2023-01-13T01:20:38.813Z,40.00
2023-01-13T01:23:05.728Z,40.00
2023-01-13T01:25:33.395Z,40.00
2023-01-13T01:28:00.370Z,40.00
2023-01-13T01:30:27.249Z,40.10
2023-01-13T01:32:54.194Z,40.10
2023-01-13T01:35:21.074Z,40.00
2023-01-13T01:37:47.971Z,40.00
2023-01-13T01:40:15.098Z,39.90
2023-01-13T01:43:01.896Z,39.90
2023-01-13T01:45:31.054Z,40.00
2023-01-13T01:48:00.135Z,39.90
2023-01-13T01:50:27.775Z,39.90
2023-01-13T01:52:57.267Z,39.90
2023-01-13T01:55:26.131Z,39.80
2023-01-13T01:58:12.907Z,39.90
2023-01-13T02:00:39.902Z,39.80
2023-01-13T02:03:07.475Z,39.80
2023-01-13T02:05:39.112Z,39.80
2023-01-13T02:08:07.104Z,39.80
2023-01-13T02:10:34.029Z,39.90
2023-01-13T02:13:02.562Z,39.80
2023-01-13T02:15:43.240Z,39.80
2023-01-13T02:18:29.065Z,39.80
2023-01-13T02:21:09.244Z,39.80
2023-01-13T02:24:03.840Z,39.80
2023-01-13T02:26:40.002Z,39.70
2023-01-13T02:29:39.263Z,39.80
2023-01-13T02:32:13.021Z,39.70
2023-01-13T02:34:42.669Z,39.70
2023-01-13T02:37:15.212Z,39.70
2023-01-13T02:39:48.809Z,39.80
2023-01-13T02:42:43.303Z,39.70
2023-01-13T02:45:13.719Z,40.30
2023-01-13T02:47:41.515Z,39.70
2023-01-13T02:50:13.783Z,39.70
2023-01-13T02:52:44.476Z,39.80
2023-01-13T02:55:14.739Z,39.80
2023-01-13T02:57:41.967Z,39.80
2023-01-13T03:00:09.861Z,39.70
2023-01-13T03:02:37.047Z,39.70
2023-01-13T03:05:04.096Z,39.70
2023-01-13T03:07:53.526Z,39.80
2023-01-13T03:10:40.270Z,39.70
2023-01-13T03:13:13.308Z,39.70
2023-01-13T03:15:47.966Z,39.70
2023-01-13T03:18:30.459Z,39.80
2023-01-13T03:21:10.833Z,39.70
2023-01-13T03:23:42.526Z,39.80
2023-01-13T03:26:19.858Z,39.70
2023-01-13T03:28:52.603Z,39.70
2023-01-13T03:31:22.790Z,39.70
2023-01-13T03:33:55.755Z,39.80
2023-01-13T03:36:25.915Z,39.70
2023-01-13T03:38:55.291Z,39.70
2023-01-13T03:41:25.772Z,39.70
2023-01-13T03:44:15.889Z,39.70
2023-01-13T03:46:46.149Z,39.80
2023-01-13T03:49:15.244Z,39.70
2023-01-13T03:51:43.152Z,39.70
2023-01-13T03:54:12.141Z,39.70
2023-01-13T03:56:41.424Z,39.70
2023-01-13T03:59:11.816Z,39.80
2023-01-13T04:01:47.341Z,39.70
2023-01-13T04:04:21.021Z,39.70
2023-01-13T04:06:54.187Z,39.60
2023-01-13T04:09:31.031Z,39.60
2023-01-13T04:12:04.015Z,39.50
2023-01-13T04:14:31.057Z,39.60
2023-01-13T04:16:57.991Z,39.50
2023-01-13T04:19:24.961Z,39.60
2023-01-13T04:21:51.894Z,39.60
2023-01-13T04:24:18.795Z,39.60
2023-01-13T04:26:45.733Z,39.50
2023-01-13T04:29:14.685Z,39.50
2023-01-13T04:31:43.063Z,39.50
2023-01-13T04:34:10.670Z,39.50
2023-01-13T04:36:37.559Z,39.50
2023-01-13T04:39:04.569Z,39.50
2023-01-13T04:41:51.365Z,39.50
2023-01-13T04:44:18.323Z,39.50
2023-01-13T04:46:45.320Z,39.50
2023-01-13T04:49:12.426Z,39.50
2023-01-13T04:51:39.403Z,39.50
2023-01-13T04:54:06.260Z,39.50
2023-01-13T04:56:33.269Z,39.50
2023-01-13T04:59:00.158Z,39.50
2023-01-13T05:01:27.214Z,39.50
2023-01-13T05:03:54.227Z,39.50
2023-01-13T05:06:21.248Z,39.50
2023-01-13T05:08:48.197Z,39.50
2023-01-13T05:11:35.035Z,39.50
2023-01-13T05:14:21.790Z,39.50
2023-01-13T05:17:03.572Z,39.50
2023-01-13T05:19:31.738Z,39.50
2023-01-13T05:22:18.583Z,39.50
2023-01-13T05:25:05.433Z,39.50
2023-01-13T05:27:32.644Z,39.40
2023-01-13T05:29:59.877Z,39.50
2023-01-13T05:32:30.388Z,39.40
2023-01-13T05:34:57.340Z,39.40
2023-01-13T05:37:24.537Z,39.40
2023-01-13T05:40:11.621Z,39.30
2023-01-13T05:42:58.525Z,39.10
2023-01-13T05:45:25.441Z,39.00
2023-01-13T05:47:52.389Z,38.90
2023-01-13T05:50:19.370Z,39.00
2023-01-13T05:52:46.337Z,39.00
2023-01-13T05:55:13.319Z,38.90
2023-01-13T05:57:40.454Z,38.90
2023-01-13T06:00:07.894Z,38.80
2023-01-13T06:02:34.905Z,38.80
2023-01-13T06:05:01.904Z,38.80
2023-01-13T06:07:28.874Z,38.80
2023-01-13T06:09:55.749Z,39.30
2023-01-13T06:12:22.746Z,38.80
2023-01-13T06:14:49.695Z,38.70
2023-01-13T06:17:16.628Z,38.80
2023-01-13T06:19:43.634Z,38.70
2023-01-13T06:22:18.605Z,38.70
2023-01-13T06:24:48.898Z,38.60
2023-01-13T06:27:16.970Z,38.60
2023-01-13T06:29:43.913Z,38.50
2023-01-13T06:32:14.818Z,38.50
2023-01-13T06:34:43.595Z,38.40
2023-01-13T06:37:11.722Z,38.30
2023-01-13T06:39:39.112Z,38.40
2023-01-13T06:42:26.363Z,38.20
2023-01-13T06:44:53.516Z,38.20
2023-01-13T06:47:22.567Z,38.10
2023-01-13T06:49:49.591Z,38.00
2023-01-13T06:52:16.600Z,37.90
2023-01-13T06:54:43.575Z,38.10
2023-01-13T06:57:11.082Z,38.20
2023-01-13T06:59:38.043Z,38.50
2023-01-13T07:02:05.088Z,38.70
2023-01-13T07:04:32.078Z,38.90
2023-01-13T07:06:59.110Z,38.80
2023-01-13T07:09:26.810Z,39.50
2023-01-13T07:11:53.694Z,38.90
2023-01-13T07:14:40.551Z,38.80
2023-01-13T07:17:07.533Z,38.80
2023-01-13T07:19:34.632Z,38.80
2023-01-13T07:22:01.552Z,39.00
2023-01-13T07:24:28.632Z,39.10
2023-01-13T07:26:55.549Z,39.00
2023-01-13T07:29:22.503Z,39.00
2023-01-13T07:31:50.558Z,38.90
2023-01-13T07:34:17.694Z,38.90
2023-01-13T07:36:44.662Z,38.80
2023-01-13T07:39:11.647Z,38.80
2023-01-13T07:41:58.626Z,38.70
2023-01-13T07:44:25.605Z,38.70
2023-01-13T07:46:52.488Z,38.60
2023-01-13T07:49:19.370Z,38.60
2023-01-13T07:51:46.398Z,38.50
2023-01-13T07:54:14.255Z,38.50
2023-01-13T07:56:41.135Z,38.50
2023-01-13T07:59:08.039Z,38.50
2023-01-13T08:01:35.040Z,38.50
2023-01-13T08:04:02.239Z,38.40
2023-01-13T08:06:29.508Z,38.40
2023-01-13T08:08:58.583Z,38.30
2023-01-13T08:11:25.494Z,38.30
2023-01-13T08:13:55.342Z,38.30
2023-01-13T08:16:22.435Z,38.30
2023-01-13T08:18:49.905Z,38.00
2023-01-13T08:21:16.956Z,37.90
2023-01-13T08:23:45.105Z,38.00
2023-01-13T08:26:17.326Z,38.00
2023-01-13T08:28:45.052Z,37.90
2023-01-13T08:31:13.796Z,37.90
2023-01-13T08:33:40.971Z,37.90
2023-01-13T08:36:09.085Z,37.80
2023-01-13T08:38:36.407Z,37.80
2023-01-13T08:41:16.034Z,37.60
2023-01-13T08:43:43.017Z,37.50
2023-01-13T08:46:10.123Z,37.50
2023-01-13T08:48:37.322Z,37.60
2023-01-13T08:51:06.859Z,37.40
2023-01-13T08:53:33.934Z,37.40
2023-01-13T08:56:00.859Z,37.40
2023-01-13T08:58:27.790Z,37.40
2023-01-13T09:00:54.804Z,37.40
2023-01-13T09:03:22.586Z,37.40
2023-01-13T09:05:49.556Z,37.40
2023-01-13T09:08:16.502Z,37.50
2023-01-13T09:10:43.575Z,37.20
2023-01-13T09:13:12.697Z,36.90
2023-01-13T09:15:40.449Z,36.90
2023-01-13T09:18:07.477Z,36.90
2023-01-13T09:20:34.523Z,36.90
2023-01-13T09:23:01.746Z,36.90
2023-01-13T09:25:28.658Z,36.80
2023-01-13T09:27:56.811Z,36.80
2023-01-13T09:30:24.226Z,36.80
2023-01-13T09:33:11.246Z,36.70
2023-01-13T09:35:38.167Z,37.00
2023-01-13T09:38:06.389Z,36.60
2023-01-13T09:40:33.534Z,36.50
2023-01-13T09:43:25.646Z,36.50
2023-01-13T09:46:01.807Z,36.40
2023-01-13T09:48:32.272Z,36.30
2023-01-13T09:51:14.814Z,36.30
2023-01-13T09:53:45.491Z,36.20
2023-01-13T09:56:12.704Z,36.20
2023-01-13T09:58:40.756Z,36.10
2023-01-13T10:01:27.591Z,36.20
2023-01-13T10:03:54.652Z,36.20
2023-01-13T10:06:24.129Z,36.10
2023-01-13T10:08:51.267Z,36.10
2023-01-13T10:11:42.202Z,36.10
2023-01-13T10:14:20.081Z,36.20
2023-01-13T10:17:06.882Z,36.30
2023-01-13T10:19:43.655Z,36.30
2023-01-13T10:22:30.397Z,36.30
2023-01-13T10:25:20.324Z,36.20
2023-01-13T10:27:51.635Z,36.10
2023-01-13T10:30:31.819Z,36.00
2023-01-13T10:33:06.526Z,35.90
2023-01-13T10:35:52.117Z,35.90
2023-01-13T10:38:24.309Z,35.90
2023-01-13T10:40:59.401Z,35.70
2023-01-13T10:43:27.071Z,35.80
2023-01-13T10:46:02.473Z,35.70
2023-01-13T10:48:34.037Z,35.70
2023-01-13T10:51:20.273Z,35.70
2023-01-13T10:54:00.145Z,35.60
2023-01-13T10:56:28.968Z,35.60
2023-01-13T10:59:14.654Z,35.60
2023-01-13T11:01:43.931Z,35.70
2023-01-13T11:04:30.860Z,35.70
2023-01-13T11:06:58.110Z,35.50
2023-01-13T11:09:25.699Z,35.50
2023-01-13T11:11:56.715Z,35.40
2023-01-13T11:14:42.643Z,35.20
2023-01-13T11:17:19.772Z,35.10
2023-01-13T11:19:50.823Z,35.00
2023-01-13T11:22:21.764Z,34.90
2023-01-13T11:24:51.454Z,35.00
2023-01-13T11:27:38.174Z,34.90
2023-01-13T11:30:21.676Z,34.90
2023-01-13T11:33:08.456Z,35.00
2023-01-13T11:35:37.852Z,35.00
2023-01-13T11:38:09.736Z,34.90
2023-01-13T11:40:39.048Z,34.90
2023-01-13T11:43:20.735Z,34.80
2023-01-13T11:45:56.248Z,34.80
2023-01-13T11:48:27.123Z,34.80
2023-01-13T11:51:00.600Z,34.70
2023-01-13T11:53:44.548Z,34.60
2023-01-13T11:56:31.289Z,34.80
2023-01-13T11:59:18.681Z,35.30
2023-01-13T12:02:05.471Z,34.50
2023-01-13T12:04:44.079Z,34.50
2023-01-13T12:07:19.512Z,34.40
2023-01-13T12:09:58.173Z,34.40
2023-01-13T12:12:36.660Z,34.40
2023-01-13T12:15:24.216Z,34.40
2023-01-13T12:18:03.784Z,34.70
2023-01-13T12:20:39.986Z,34.80
2023-01-13T12:23:11.770Z,34.90
2023-01-13T12:25:43.233Z,35.20
2023-01-13T12:28:13.921Z,35.40
2023-01-13T12:31:00.711Z,35.40
2023-01-13T12:33:36.890Z,35.20
2023-01-13T12:36:09.413Z,34.90
2023-01-13T12:38:37.819Z,34.70
2023-01-13T12:41:13.005Z,34.80
2023-01-13T12:44:01.478Z,34.90
2023-01-13T12:46:34.360Z,35.10
2023-01-13T12:49:05.900Z,35.10
2023-01-13T12:51:37.768Z,35.20
2023-01-13T12:54:24.593Z,35.20
2023-01-13T12:56:54.111Z,35.30
2023-01-13T12:59:32.835Z,35.20
2023-01-13T13:02:19.775Z,35.00
2023-01-13T13:04:49.694Z,34.90
2023-01-13T13:07:33.856Z,35.00
2023-01-13T13:10:02.503Z,34.80
2023-01-13T13:13:09.137Z,34.60
2023-01-13T13:15:36.496Z,34.40
2023-01-13T13:18:21.677Z,34.30
2023-01-13T13:21:04.719Z,34.20
2023-01-13T13:23:39.496Z,34.10
2023-01-13T13:26:25.264Z,34.10
2023-01-13T13:29:12.023Z,34.10
2023-01-13T13:31:58.800Z,34.10
2023-01-13T13:34:31.029Z,34.10
2023-01-13T13:37:10.071Z,34.10
2023-01-13T13:39:56.889Z,34.10
2023-01-13T13:42:46.232Z,34.20
2023-01-13T13:45:37.419Z,34.30
2023-01-13T13:48:19.687Z,34.50
2023-01-13T13:50:47.852Z,34.60
2023-01-13T13:53:14.991Z,34.70
2023-01-13T13:55:52.034Z,35.20
2023-01-13T13:58:19.035Z,35.30
2023-01-13T14:00:48.030Z,35.80
2023-01-13T14:03:32.312Z,36.70
2023-01-13T14:06:03.565Z,37.30
2023-01-13T14:08:33.047Z,38.70
2023-01-13T14:11:00.164Z,38.70
2023-01-13T14:13:28.194Z,38.90
2023-01-13T14:15:57.146Z,38.70
2023-01-13T14:18:24.939Z,38.60
2023-01-13T14:21:11.665Z,38.60
2023-01-13T14:23:38.815Z,38.70
2023-01-13T14:26:09.613Z,38.50
2023-01-13T14:28:40.476Z,38.10
2023-01-13T14:31:08.064Z,37.60
2023-01-13T14:33:49.148Z,37.20
2023-01-13T14:36:20.348Z,36.90
2023-01-13T14:39:07.105Z,36.60
2023-01-13T14:41:38.509Z,36.40
2023-01-13T14:44:13.582Z,36.10
2023-01-13T14:46:42.431Z,36.00
2023-01-13T14:49:29.310Z,35.90
2023-01-13T14:52:14.094Z,35.80
2023-01-13T14:54:47.093Z,35.70
2023-01-13T14:57:28.329Z,35.60
2023-01-13T14:59:57.945Z,35.70
2023-01-13T15:02:37.934Z,35.70
2023-01-13T15:05:24.749Z,35.80
2023-01-13T15:07:54.324Z,36.00
2023-01-13T15:10:23.176Z,36.40
2023-01-13T15:12:51.182Z,36.60
2023-01-13T15:15:27.326Z,36.80
2023-01-13T15:17:54.223Z,36.70
2023-01-13T15:20:22.170Z,37.00
2023-01-13T15:22:49.645Z,36.90
2023-01-13T15:25:16.664Z,36.90
2023-01-13T15:27:44.376Z,36.90
2023-01-13T15:30:20.020Z,37.00
2023-01-13T15:32:46.994Z,37.00
2023-01-13T15:35:15.142Z,37.10
2023-01-13T15:37:42.614Z,37.10
2023-01-13T15:40:13.796Z,37.10
2023-01-13T15:43:00.551Z,37.10
2023-01-13T15:45:47.434Z,37.20
2023-01-13T15:48:14.391Z,37.20
2023-01-13T15:50:41.272Z,37.30
2023-01-13T15:53:10.609Z,37.30
2023-01-13T15:55:38.416Z,37.30
2023-01-13T15:58:05.885Z,37.40
2023-01-13T16:00:32.807Z,37.40
2023-01-13T16:03:00.100Z,37.40
2023-01-13T16:05:27.163Z,37.40
2023-01-13T16:07:54.112Z,37.50
2023-01-13T16:10:22.753Z,37.50
2023-01-13T16:12:49.740Z,37.50
2023-01-13T16:15:17.330Z,37.50
2023-01-13T16:17:45.189Z,37.60
2023-01-13T16:20:13.048Z,37.60
2023-01-13T16:22:39.956Z,37.60
2023-01-13T16:25:07.111Z,37.60
2023-01-13T16:27:34.004Z,37.70
2023-01-13T16:30:00.975Z,37.70
2023-01-13T16:32:27.897Z,37.90
2023-01-13T16:34:54.890Z,37.70
2023-01-13T16:37:23.865Z,37.70
2023-01-13T16:39:51.359Z,37.70
2023-01-13T16:42:18.418Z,37.70
2023-01-13T16:44:46.739Z,37.70
2023-01-13T16:47:17.547Z,37.70
2023-01-13T16:49:45.272Z,37.80
2023-01-13T16:52:12.207Z,37.80
2023-01-13T16:54:39.165Z,37.80
2023-01-13T16:57:07.770Z,37.80
2023-01-13T16:59:34.838Z,37.80
2023-01-13T17:02:02.318Z,37.80
2023-01-13T17:04:29.463Z,37.80
2023-01-13T17:07:07.091Z,37.80
2023-01-13T17:09:34.026Z,37.80
2023-01-13T17:12:01.537Z,37.80
2023-01-13T17:14:28.497Z,37.80
2023-01-13T17:16:57.248Z,37.90
2023-01-13T17:19:24.690Z,37.90
2023-01-13T17:21:51.711Z,37.90
2023-01-13T17:24:18.635Z,37.90
2023-01-13T17:26:49.137Z,37.90
2023-01-13T17:29:19.996Z,38.00
2023-01-13T17:31:46.973Z,38.00
2023-01-13T17:34:14.541Z,38.00
2023-01-13T17:36:43.562Z,38.00
2023-01-13T17:39:15.707Z,38.00
2023-01-13T17:41:42.672Z,38.00
2023-01-13T17:44:11.816Z,38.00
2023-01-13T17:46:39.549Z,38.00
2023-01-13T17:49:06.524Z,38.00
2023-01-13T17:51:33.469Z,38.10
2023-01-13T17:54:00.366Z,38.10
2023-01-13T17:56:27.278Z,38.10
2023-01-13T17:58:54.155Z,38.20
2023-01-13T18:01:22.032Z,38.10
2023-01-13T18:03:49.132Z,38.10
2023-01-13T18:06:17.485Z,38.10
2023-01-13T18:08:45.059Z,38.20
2023-01-13T18:11:12.139Z,38.20
2023-01-13T18:13:41.401Z,38.20
2023-01-13T18:16:12.734Z,38.20
2023-01-13T18:18:42.016Z,38.30
2023-01-13T18:21:37.560Z,38.30
2023-01-13T18:24:24.746Z,38.30
2023-01-13T18:27:11.517Z,38.30
2023-01-13T18:29:38.462Z,38.30
2023-01-13T18:32:07.682Z,38.30
2023-01-13T18:34:37.969Z,38.30
2023-01-13T18:37:05.610Z,38.40
2023-01-13T18:39:32.651Z,38.40
2023-01-13T18:42:19.423Z,38.90
2023-01-13T18:44:46.306Z,38.40
2023-01-13T18:47:13.213Z,38.40
2023-01-13T18:49:40.110Z,38.40
2023-01-13T18:52:07.338Z,38.40
2023-01-13T18:54:34.274Z,38.40
2023-01-13T18:57:02.862Z,38.40
2023-01-13T18:59:29.847Z,38.60
2023-01-13T19:01:56.950Z,38.40
2023-01-13T19:04:23.991Z,38.40
2023-01-13T19:07:00.185Z,38.40
2023-01-13T19:09:28.809Z,38.40
2023-01-13T19:11:56.430Z,38.40
2023-01-13T19:14:42.177Z,38.50
2023-01-13T19:17:14.184Z,38.50
2023-01-13T19:19:43.470Z,38.50
2023-01-13T19:22:11.456Z,38.50
2023-01-13T19:24:42.051Z,38.50
2023-01-13T19:27:09.433Z,38.40
2023-01-13T19:29:36.413Z,38.50
2023-01-13T19:32:03.525Z,38.50
2023-01-13T19:34:30.597Z,38.50
2023-01-13T19:36:57.559Z,38.50
2023-01-13T19:39:24.796Z,38.50
2023-01-13T19:42:11.662Z,38.50
2023-01-13T19:44:58.403Z,38.50
2023-01-13T19:47:25.452Z,38.50
2023-01-13T19:49:52.335Z,38.60
2023-01-13T19:52:19.260Z,38.60
2023-01-13T19:54:46.669Z,38.60
2023-01-13T19:57:14.142Z,38.60
2023-01-13T19:59:41.751Z,38.60
2023-01-13T20:02:15.036Z,38.80
2023-01-13T20:04:44.811Z,38.60
2023-01-13T20:07:13.841Z,38.60
2023-01-13T20:09:44.342Z,38.80
2023-01-13T20:12:13.869Z,38.60
2023-01-13T20:14:40.980Z,38.60
2023-01-13T20:17:08.029Z,38.60
2023-01-13T20:19:34.950Z,38.70
2023-01-13T20:22:01.847Z,38.60
2023-01-13T20:24:28.824Z,38.70
2023-01-13T20:26:55.803Z,38.70
2023-01-13T20:29:23.045Z,38.70
2023-01-13T20:31:50.553Z,38.60
2023-01-13T20:34:20.712Z,38.60
2023-01-13T20:36:48.970Z,38.60
2023-01-13T20:39:17.387Z,38.70
2023-01-13T20:42:04.540Z,38.70
2023-01-13T20:44:33.574Z,38.70
2023-01-13T20:47:00.992Z,38.70
2023-01-13T20:49:27.974Z,38.70
2023-01-13T20:51:55.387Z,38.80
2023-01-13T20:54:22.752Z,38.80
2023-01-13T20:56:49.940Z,38.80
2023-01-13T20:59:16.886Z,38.80
2023-01-13T21:01:44.038Z,38.80
2023-01-13T21:04:11.057Z,38.80
2023-01-13T21:06:38.098Z,38.80
2023-01-13T21:09:04.980Z,38.80
2023-01-13T21:11:51.845Z,38.80
2023-01-13T21:14:40.593Z,38.80
2023-01-13T21:17:07.944Z,38.80
2023-01-13T21:19:34.813Z,38.70
2023-01-13T21:22:04.144Z,38.80
2023-01-13T21:24:31.035Z,38.80
2023-01-13T21:27:00.950Z,38.80
2023-01-13T21:29:27.866Z,38.70
2023-01-13T21:31:54.861Z,38.80
2023-01-13T21:34:21.787Z,39.30
2023-01-13T21:36:48.765Z,38.70
2023-01-13T21:39:16.190Z,38.70
2023-01-13T21:42:02.957Z,38.80
2023-01-13T21:44:49.746Z,38.70
2023-01-13T21:47:37.368Z,38.80
2023-01-13T21:50:06.843Z,38.70
2023-01-13T21:52:33.751Z,38.70
2023-01-13T21:55:20.579Z,38.70
2023-01-13T21:57:48.611Z,38.70
2023-01-13T22:00:16.309Z,38.70
2023-01-13T22:02:43.659Z,38.70
2023-01-13T22:05:11.456Z,38.80
2023-01-13T22:07:39.183Z,38.80
2023-01-13T22:10:07.211Z,38.80
2023-01-13T22:12:34.312Z,38.80
2023-01-13T22:15:01.188Z,38.80
2023-01-13T22:17:28.675Z,38.80
2023-01-13T22:19:59.083Z,38.80
2023-01-13T22:22:26.607Z,38.80
2023-01-13T22:24:53.665Z,38.80
2023-01-13T22:27:25.453Z,38.80
2023-01-13T22:29:53.184Z,38.80
2023-01-13T22:32:20.718Z,38.80
2023-01-13T22:34:48.185Z,38.80
2023-01-13T22:37:15.129Z,38.80
2023-01-13T22:39:42.215Z,38.80
2023-01-13T22:42:10.269Z,38.80
2023-01-13T22:44:37.219Z,38.80
2023-01-13T22:47:04.180Z,38.90
2023-01-13T22:49:31.055Z,38.90
2023-01-13T22:51:57.970Z,38.90
2023-01-13T22:54:24.988Z,38.90
2023-01-13T22:56:51.889Z,39.00
2023-01-13T22:59:18.840Z,38.90
2023-01-13T23:01:45.801Z,38.90
2023-01-13T23:04:15.911Z,38.90
2023-01-13T23:06:42.963Z,38.90
2023-01-13T23:09:10.177Z,38.90
2023-01-13T23:11:37.153Z,38.90
2023-01-13T23:14:05.432Z,38.90
2023-01-13T23:16:33.584Z,38.90
2023-01-13T23:19:00.559Z,38.90
2023-01-13T23:21:29.317Z,38.90
2023-01-13T23:23:58.452Z,38.90
2023-01-13T23:26:26.075Z,39.00
2023-01-13T23:28:53.010Z,38.90
2023-01-13T23:31:20.937Z,38.90
2023-01-13T23:33:48.253Z,39.00
2023-01-13T23:36:16.702Z,38.90
2023-01-13T23:38:43.651Z,38.90
2023-01-13T23:41:11.592Z,39.00
2023-01-13T23:43:38.486Z,39.00
2023-01-13T23:46:06.773Z,39.00
2023-01-13T23:48:34.117Z,39.00
2023-01-13T23:51:01.679Z,38.90
2023-01-13T23:53:33.590Z,39.00
2023-01-13T23:56:00.971Z,38.90
2023-01-13T23:58:28.211Z,38.90
